sensor_id;sensor_type;location;lat;lon;timestamp;P1;durP1;ratioP1;P2;durP2;ratioP2
31764;SDS011;18338;53.240;8.798;2024-03-22T00:00:42;14.15;;;11.75;;
31764;SDS011;18338;53.240;8.798;2024-03-22T00:03:08;14.63;;;12.02;;
31764;SDS011;18338;53.240;8.798;2024-03-22T00:05:34;17.52;;;12.25;;
31764;SDS011;18338;53.240;8.798;2024-03-22T00:07:59;14.32;;;12.05;;
31764;SDS011;18338;53.240;8.798;2024-03-22T00:10:25;15.90;;;12.38;;
31764;SDS011;18338;53.240;8.798;2024-03-22T00:12:51;15.75;;;12.50;;
31764;SDS011;18338;53.240;8.798;2024-03-22T00:15:17;22.40;;;12.60;;
31764;SDS011;18338;53.240;8.798;2024-03-22T00:17:44;15.20;;;13.48;;
31764;SDS011;18338;53.240;8.798;2024-03-22T00:20:10;15.25;;;13.02;;
31764;SDS011;18338;53.240;8.798;2024-03-22T00:22:36;17.15;;;12.60;;
31764;SDS011;18338;53.240;8.798;2024-03-22T00:25:01;16.38;;;13.18;;
31764;SDS011;18338;53.240;8.798;2024-03-22T00:27:27;17.98;;;13.93;;
31764;SDS011;18338;53.240;8.798;2024-03-22T00:29:54;18.42;;;14.38;;
31764;SDS011;18338;53.240;8.798;2024-03-22T00:32:19;18.25;;;14.07;;
31764;SDS011;18338;53.240;8.798;2024-03-22T00:34:45;24.58;;;14.95;;
31764;SDS011;18338;53.240;8.798;2024-03-22T00:37:11;18.25;;;13.38;;
31764;SDS011;18338;53.240;8.798;2024-03-22T00:39:36;19.77;;;15.02;;
31764;SDS011;18338;53.240;8.798;2024-03-22T00:42:02;16.00;;;13.65;;
31764;SDS011;18338;53.240;8.798;2024-03-22T00:44:28;19.27;;;14.70;;
31764;SDS011;18338;53.240;8.798;2024-03-22T00:46:54;21.08;;;15.93;;
31764;SDS011;18338;53.240;8.798;2024-03-22T00:49:20;19.00;;;15.18;;
31764;SDS011;18338;53.240;8.798;2024-03-22T00:51:45;19.35;;;15.43;;
31764;SDS011;18338;53.240;8.798;2024-03-22T00:54:12;19.85;;;15.60;;
31764;SDS011;18338;53.240;8.798;2024-03-22T00:56:38;23.45;;;18.08;;
31764;SDS011;18338;53.240;8.798;2024-03-22T00:59:04;20.30;;;16.48;;
31764;SDS011;18338;53.240;8.798;2024-03-22T01:01:29;20.88;;;17.17;;
31764;SDS011;18338;53.240;8.798;2024-03-22T01:03:55;20.83;;;15.93;;
31764;SDS011;18338;53.240;8.798;2024-03-22T01:06:21;21.88;;;17.48;;
31764;SDS011;18338;53.240;8.798;2024-03-22T01:08:48;22.95;;;17.35;;
31764;SDS011;18338;53.240;8.798;2024-03-22T01:11:14;19.25;;;16.88;;
31764;SDS011;18338;53.240;8.798;2024-03-22T01:13:40;22.63;;;17.85;;
31764;SDS011;18338;53.240;8.798;2024-03-22T01:16:06;21.02;;;17.48;;
31764;SDS011;18338;53.240;8.798;2024-03-22T01:18:35;21.65;;;18.10;;
31764;SDS011;18338;53.240;8.798;2024-03-22T01:21:01;21.75;;;18.45;;
31764;SDS011;18338;53.240;8.798;2024-03-22T01:23:27;24.27;;;18.40;;
31764;SDS011;18338;53.240;8.798;2024-03-22T01:25:53;22.40;;;18.77;;
31764;SDS011;18338;53.240;8.798;2024-03-22T01:28:19;22.77;;;17.70;;
31764;SDS011;18338;53.240;8.798;2024-03-22T01:30:44;26.77;;;20.45;;
31764;SDS011;18338;53.240;8.798;2024-03-22T01:33:10;23.33;;;19.13;;
31764;SDS011;18338;53.240;8.798;2024-03-22T01:35:36;26.27;;;19.73;;
31764;SDS011;18338;53.240;8.798;2024-03-22T01:38:01;23.27;;;19.42;;
31764;SDS011;18338;53.240;8.798;2024-03-22T01:40:27;25.65;;;20.30;;
31764;SDS011;18338;53.240;8.798;2024-03-22T01:42:55;24.42;;;20.00;;
31764;SDS011;18338;53.240;8.798;2024-03-22T01:45:21;26.52;;;21.00;;
31764;SDS011;18338;53.240;8.798;2024-03-22T01:47:52;25.80;;;21.08;;
31764;SDS011;18338;53.240;8.798;2024-03-22T01:50:20;26.05;;;21.13;;
31764;SDS011;18338;53.240;8.798;2024-03-22T01:52:46;25.30;;;20.35;;
31764;SDS011;18338;53.240;8.798;2024-03-22T01:55:12;27.13;;;21.17;;
31764;SDS011;18338;53.240;8.798;2024-03-22T01:57:39;27.45;;;21.77;;
31764;SDS011;18338;53.240;8.798;2024-03-22T02:00:05;28.98;;;21.77;;
31764;SDS011;18338;53.240;8.798;2024-03-22T02:02:33;28.90;;;23.00;;
31764;SDS011;18338;53.240;8.798;2024-03-22T02:05:10;26.63;;;22.58;;
31764;SDS011;18338;53.240;8.798;2024-03-22T02:07:37;29.50;;;23.55;;
31764;SDS011;18338;53.240;8.798;2024-03-22T02:10:02;29.85;;;23.23;;
31764;SDS011;18338;53.240;8.798;2024-03-22T02:12:28;29.50;;;22.95;;
31764;SDS011;18338;53.240;8.798;2024-03-22T02:14:57;28.83;;;22.38;;
31764;SDS011;18338;53.240;8.798;2024-03-22T02:17:23;30.75;;;24.10;;
31764;SDS011;18338;53.240;8.798;2024-03-22T02:19:48;31.00;;;24.17;;
31764;SDS011;18338;53.240;8.798;2024-03-22T02:22:14;30.38;;;24.60;;
31764;SDS011;18338;53.240;8.798;2024-03-22T02:24:40;31.02;;;25.17;;
31764;SDS011;18338;53.240;8.798;2024-03-22T02:27:06;31.42;;;25.05;;
31764;SDS011;18338;53.240;8.798;2024-03-22T02:29:31;32.72;;;25.23;;
31764;SDS011;18338;53.240;8.798;2024-03-22T02:31:57;32.15;;;25.13;;
31764;SDS011;18338;53.240;8.798;2024-03-22T02:34:23;31.67;;;26.52;;
31764;SDS011;18338;53.240;8.798;2024-03-22T02:36:49;33.80;;;26.27;;
31764;SDS011;18338;53.240;8.798;2024-03-22T02:39:15;35.47;;;25.75;;
31764;SDS011;18338;53.240;8.798;2024-03-22T02:41:40;36.03;;;27.83;;
31764;SDS011;18338;53.240;8.798;2024-03-22T02:44:06;35.17;;;26.73;;
31764;SDS011;18338;53.240;8.798;2024-03-22T02:46:32;34.38;;;26.15;;
31764;SDS011;18338;53.240;8.798;2024-03-22T02:48:57;36.20;;;26.92;;
31764;SDS011;18338;53.240;8.798;2024-03-22T02:51:23;34.05;;;25.67;;
31764;SDS011;18338;53.240;8.798;2024-03-22T02:53:49;37.97;;;28.80;;
31764;SDS011;18338;53.240;8.798;2024-03-22T02:56:15;38.25;;;28.70;;
31764;SDS011;18338;53.240;8.798;2024-03-22T02:58:41;40.78;;;30.00;;
31764;SDS011;18338;53.240;8.798;2024-03-22T03:01:06;41.95;;;29.60;;
31764;SDS011;18338;53.240;8.798;2024-03-22T03:03:32;38.05;;;28.95;;
31764;SDS011;18338;53.240;8.798;2024-03-22T03:05:58;40.95;;;30.02;;
31764;SDS011;18338;53.240;8.798;2024-03-22T03:08:23;41.40;;;28.92;;
31764;SDS011;18338;53.240;8.798;2024-03-22T03:10:49;43.03;;;31.10;;
31764;SDS011;18338;53.240;8.798;2024-03-22T03:13:15;39.17;;;28.02;;
31764;SDS011;18338;53.240;8.798;2024-03-22T03:15:40;40.95;;;29.85;;
31764;SDS011;18338;53.240;8.798;2024-03-22T03:18:06;43.80;;;31.23;;
31764;SDS011;18338;53.240;8.798;2024-03-22T03:20:32;42.40;;;30.35;;
31764;SDS011;18338;53.240;8.798;2024-03-22T03:22:57;43.33;;;31.33;;
31764;SDS011;18338;53.240;8.798;2024-03-22T03:25:25;44.28;;;31.48;;
31764;SDS011;18338;53.240;8.798;2024-03-22T03:27:51;40.22;;;30.05;;
31764;SDS011;18338;53.240;8.798;2024-03-22T03:30:17;40.33;;;29.83;;
31764;SDS011;18338;53.240;8.798;2024-03-22T03:32:43;41.83;;;29.58;;
31764;SDS011;18338;53.240;8.798;2024-03-22T03:35:08;43.85;;;31.13;;
31764;SDS011;18338;53.240;8.798;2024-03-22T03:37:34;43.88;;;31.15;;
31764;SDS011;18338;53.240;8.798;2024-03-22T03:40:00;43.65;;;30.48;;
31764;SDS011;18338;53.240;8.798;2024-03-22T03:42:26;43.72;;;31.05;;
31764;SDS011;18338;53.240;8.798;2024-03-22T03:44:51;42.72;;;30.35;;
31764;SDS011;18338;53.240;8.798;2024-03-22T03:47:17;44.65;;;29.80;;
31764;SDS011;18338;53.240;8.798;2024-03-22T03:49:45;41.00;;;30.40;;
31764;SDS011;18338;53.240;8.798;2024-03-22T03:52:11;42.60;;;30.90;;
31764;SDS011;18338;53.240;8.798;2024-03-22T03:54:37;44.05;;;28.75;;
31764;SDS011;18338;53.240;8.798;2024-03-22T03:57:02;40.38;;;31.17;;
31764;SDS011;18338;53.240;8.798;2024-03-22T03:59:29;41.35;;;29.38;;
31764;SDS011;18338;53.240;8.798;2024-03-22T04:01:54;41.65;;;29.05;;
31764;SDS011;18338;53.240;8.798;2024-03-22T04:04:20;42.70;;;29.90;;
31764;SDS011;18338;53.240;8.798;2024-03-22T04:06:46;41.30;;;29.67;;
31764;SDS011;18338;53.240;8.798;2024-03-22T04:09:12;41.88;;;30.33;;
31764;SDS011;18338;53.240;8.798;2024-03-22T04:11:38;43.42;;;30.95;;
31764;SDS011;18338;53.240;8.798;2024-03-22T04:14:04;40.53;;;29.95;;
31764;SDS011;18338;53.240;8.798;2024-03-22T04:16:31;42.42;;;31.15;;
31764;SDS011;18338;53.240;8.798;2024-03-22T04:18:57;44.38;;;30.52;;
31764;SDS011;18338;53.240;8.798;2024-03-22T04:21:23;42.08;;;30.38;;
31764;SDS011;18338;53.240;8.798;2024-03-22T04:23:48;45.65;;;33.08;;
31764;SDS011;18338;53.240;8.798;2024-03-22T04:26:14;48.58;;;31.55;;
31764;SDS011;18338;53.240;8.798;2024-03-22T04:28:40;43.22;;;30.08;;
31764;SDS011;18338;53.240;8.798;2024-03-22T04:31:07;41.30;;;30.02;;
31764;SDS011;18338;53.240;8.798;2024-03-22T04:33:34;41.85;;;30.42;;
31764;SDS011;18338;53.240;8.798;2024-03-22T04:36:01;43.90;;;30.95;;
31764;SDS011;18338;53.240;8.798;2024-03-22T04:38:28;41.55;;;30.98;;
31764;SDS011;18338;53.240;8.798;2024-03-22T04:40:54;41.58;;;30.98;;
31764;SDS011;18338;53.240;8.798;2024-03-22T04:43:23;41.90;;;31.20;;
31764;SDS011;18338;53.240;8.798;2024-03-22T04:45:49;43.75;;;30.83;;
31764;SDS011;18338;53.240;8.798;2024-03-22T04:48:18;44.63;;;31.27;;
31764;SDS011;18338;53.240;8.798;2024-03-22T04:50:51;43.95;;;31.55;;
31764;SDS011;18338;53.240;8.798;2024-03-22T04:53:18;43.22;;;31.30;;
31764;SDS011;18338;53.240;8.798;2024-03-22T04:55:48;45.53;;;31.25;;
31764;SDS011;18338;53.240;8.798;2024-03-22T04:58:15;44.13;;;30.08;;
31764;SDS011;18338;53.240;8.798;2024-03-22T05:00:42;44.45;;;31.23;;
31764;SDS011;18338;53.240;8.798;2024-03-22T05:03:09;43.75;;;30.73;;
31764;SDS011;18338;53.240;8.798;2024-03-22T05:05:35;45.38;;;32.28;;
31764;SDS011;18338;53.240;8.798;2024-03-22T05:08:01;43.35;;;31.27;;
31764;SDS011;18338;53.240;8.798;2024-03-22T05:10:27;44.55;;;31.15;;
31764;SDS011;18338;53.240;8.798;2024-03-22T05:12:54;44.38;;;31.33;;
31764;SDS011;18338;53.240;8.798;2024-03-22T05:15:23;45.22;;;30.58;;
31764;SDS011;18338;53.240;8.798;2024-03-22T05:17:52;46.13;;;31.90;;
31764;SDS011;18338;53.240;8.798;2024-03-22T05:20:19;48.88;;;31.30;;
31764;SDS011;18338;53.240;8.798;2024-03-22T05:22:45;46.28;;;31.02;;
31764;SDS011;18338;53.240;8.798;2024-03-22T05:25:11;48.35;;;30.88;;
31764;SDS011;18338;53.240;8.798;2024-03-22T05:27:38;42.42;;;30.42;;
31764;SDS011;18338;53.240;8.798;2024-03-22T05:30:04;47.00;;;31.45;;
31764;SDS011;18338;53.240;8.798;2024-03-22T05:32:30;48.63;;;31.85;;
31764;SDS011;18338;53.240;8.798;2024-03-22T05:34:55;45.08;;;30.95;;
31764;SDS011;18338;53.240;8.798;2024-03-22T05:37:21;47.10;;;32.92;;
31764;SDS011;18338;53.240;8.798;2024-03-22T05:39:47;46.65;;;32.15;;
31764;SDS011;18338;53.240;8.798;2024-03-22T05:42:13;45.30;;;32.00;;
31764;SDS011;18338;53.240;8.798;2024-03-22T05:44:39;45.20;;;31.90;;
31764;SDS011;18338;53.240;8.798;2024-03-22T05:47:04;45.10;;;30.83;;
31764;SDS011;18338;53.240;8.798;2024-03-22T05:49:30;44.72;;;31.02;;
31764;SDS011;18338;53.240;8.798;2024-03-22T05:51:56;44.13;;;31.50;;
31764;SDS011;18338;53.240;8.798;2024-03-22T05:54:22;45.60;;;31.45;;
31764;SDS011;18338;53.240;8.798;2024-03-22T05:56:47;42.15;;;29.17;;
31764;SDS011;18338;53.240;8.798;2024-03-22T05:59:13;42.00;;;30.40;;
31764;SDS011;18338;53.240;8.798;2024-03-22T06:01:39;45.63;;;31.05;;
31764;SDS011;18338;53.240;8.798;2024-03-22T06:04:05;45.78;;;32.25;;
31764;SDS011;18338;53.240;8.798;2024-03-22T06:06:34;43.85;;;31.80;;
31764;SDS011;18338;53.240;8.798;2024-03-22T06:09:00;44.60;;;31.42;;
31764;SDS011;18338;53.240;8.798;2024-03-22T06:11:29;42.40;;;29.67;;
31764;SDS011;18338;53.240;8.798;2024-03-22T06:13:55;43.95;;;30.75;;
31764;SDS011;18338;53.240;8.798;2024-03-22T06:16:21;42.20;;;29.67;;
31764;SDS011;18338;53.240;8.798;2024-03-22T06:18:47;43.22;;;29.52;;
31764;SDS011;18338;53.240;8.798;2024-03-22T06:21:13;44.65;;;30.85;;
31764;SDS011;18338;53.240;8.798;2024-03-22T06:23:50;44.28;;;31.35;;
31764;SDS011;18338;53.240;8.798;2024-03-22T06:26:16;43.53;;;30.60;;
31764;SDS011;18338;53.240;8.798;2024-03-22T06:28:42;42.22;;;29.75;;
31764;SDS011;18338;53.240;8.798;2024-03-22T06:31:08;45.40;;;30.85;;
31764;SDS011;18338;53.240;8.798;2024-03-22T06:33:34;41.45;;;28.75;;
31764;SDS011;18338;53.240;8.798;2024-03-22T06:35:59;45.50;;;31.33;;
31764;SDS011;18338;53.240;8.798;2024-03-22T06:38:25;48.15;;;31.27;;
31764;SDS011;18338;53.240;8.798;2024-03-22T06:40:51;50.50;;;33.28;;
31764;SDS011;18338;53.240;8.798;2024-03-22T06:43:17;48.47;;;33.60;;
31764;SDS011;18338;53.240;8.798;2024-03-22T06:45:43;50.15;;;32.42;;
31764;SDS011;18338;53.240;8.798;2024-03-22T06:48:09;50.40;;;33.33;;
31764;SDS011;18338;53.240;8.798;2024-03-22T06:50:35;50.75;;;34.03;;
31764;SDS011;18338;53.240;8.798;2024-03-22T06:53:00;49.58;;;33.42;;
31764;SDS011;18338;53.240;8.798;2024-03-22T06:55:26;53.92;;;35.83;;
31764;SDS011;18338;53.240;8.798;2024-03-22T06:57:52;54.60;;;34.67;;
31764;SDS011;18338;53.240;8.798;2024-03-22T07:00:18;57.38;;;35.67;;
31764;SDS011;18338;53.240;8.798;2024-03-22T07:02:44;56.60;;;37.05;;
31764;SDS011;18338;53.240;8.798;2024-03-22T07:05:10;56.28;;;35.63;;
31764;SDS011;18338;53.240;8.798;2024-03-22T07:07:37;59.58;;;37.72;;
31764;SDS011;18338;53.240;8.798;2024-03-22T07:10:03;55.78;;;35.45;;
31764;SDS011;18338;53.240;8.798;2024-03-22T07:12:32;54.60;;;36.30;;
31764;SDS011;18338;53.240;8.798;2024-03-22T07:15:01;57.97;;;37.67;;
31764;SDS011;18338;53.240;8.798;2024-03-22T07:17:28;62.50;;;36.72;;
31764;SDS011;18338;53.240;8.798;2024-03-22T07:19:54;63.25;;;37.63;;
31764;SDS011;18338;53.240;8.798;2024-03-22T07:22:21;60.88;;;37.55;;
31764;SDS011;18338;53.240;8.798;2024-03-22T07:24:47;60.80;;;36.17;;
31764;SDS011;18338;53.240;8.798;2024-03-22T07:27:13;55.38;;;36.00;;
31764;SDS011;18338;53.240;8.798;2024-03-22T07:29:40;57.05;;;37.03;;
31764;SDS011;18338;53.240;8.798;2024-03-22T07:32:06;59.60;;;37.00;;
31764;SDS011;18338;53.240;8.798;2024-03-22T07:34:32;61.85;;;37.47;;
31764;SDS011;18338;53.240;8.798;2024-03-22T07:36:58;64.85;;;38.10;;
31764;SDS011;18338;53.240;8.798;2024-03-22T07:39:23;64.18;;;38.47;;
31764;SDS011;18338;53.240;8.798;2024-03-22T07:41:49;60.83;;;37.35;;
31764;SDS011;18338;53.240;8.798;2024-03-22T07:44:16;67.78;;;39.22;;
31764;SDS011;18338;53.240;8.798;2024-03-22T07:46:49;58.28;;;36.15;;
31764;SDS011;18338;53.240;8.798;2024-03-22T07:49:15;58.03;;;36.58;;
31764;SDS011;18338;53.240;8.798;2024-03-22T07:51:41;61.45;;;37.65;;
31764;SDS011;18338;53.240;8.798;2024-03-22T07:54:07;55.63;;;33.50;;
31764;SDS011;18338;53.240;8.798;2024-03-22T07:56:32;57.75;;;36.83;;
31764;SDS011;18338;53.240;8.798;2024-03-22T07:58:58;58.03;;;34.25;;
31764;SDS011;18338;53.240;8.798;2024-03-22T08:01:25;57.63;;;37.47;;
31764;SDS011;18338;53.240;8.798;2024-03-22T08:03:51;58.88;;;37.10;;
31764;SDS011;18338;53.240;8.798;2024-03-22T08:06:17;56.25;;;37.17;;
31764;SDS011;18338;53.240;8.798;2024-03-22T08:08:43;54.53;;;36.50;;
31764;SDS011;18338;53.240;8.798;2024-03-22T08:11:09;58.78;;;37.10;;
31764;SDS011;18338;53.240;8.798;2024-03-22T08:13:35;61.40;;;36.90;;
31764;SDS011;18338;53.240;8.798;2024-03-22T08:16:01;57.75;;;35.75;;
31764;SDS011;18338;53.240;8.798;2024-03-22T08:18:27;61.80;;;37.00;;
31764;SDS011;18338;53.240;8.798;2024-03-22T08:20:52;57.47;;;36.10;;
31764;SDS011;18338;53.240;8.798;2024-03-22T08:23:18;57.22;;;36.58;;
31764;SDS011;18338;53.240;8.798;2024-03-22T08:25:45;60.50;;;36.53;;
31764;SDS011;18338;53.240;8.798;2024-03-22T08:28:11;59.22;;;35.17;;
31764;SDS011;18338;53.240;8.798;2024-03-22T08:30:39;60.38;;;36.97;;
31764;SDS011;18338;53.240;8.798;2024-03-22T08:33:05;62.35;;;37.88;;
31764;SDS011;18338;53.240;8.798;2024-03-22T08:35:30;60.47;;;37.78;;
31764;SDS011;18338;53.240;8.798;2024-03-22T08:37:56;60.75;;;36.67;;
31764;SDS011;18338;53.240;8.798;2024-03-22T08:40:23;57.92;;;36.33;;
31764;SDS011;18338;53.240;8.798;2024-03-22T08:42:50;53.45;;;34.28;;
31764;SDS011;18338;53.240;8.798;2024-03-22T08:45:15;56.20;;;34.83;;
31764;SDS011;18338;53.240;8.798;2024-03-22T08:47:42;57.50;;;34.15;;
31764;SDS011;18338;53.240;8.798;2024-03-22T08:50:11;51.78;;;34.95;;
31764;SDS011;18338;53.240;8.798;2024-03-22T08:52:37;50.80;;;33.45;;
31764;SDS011;18338;53.240;8.798;2024-03-22T08:55:03;53.60;;;33.85;;
31764;SDS011;18338;53.240;8.798;2024-03-22T08:57:31;50.05;;;30.83;;
31764;SDS011;18338;53.240;8.798;2024-03-22T08:59:58;51.72;;;34.42;;
31764;SDS011;18338;53.240;8.798;2024-03-22T09:02:24;49.63;;;31.30;;
31764;SDS011;18338;53.240;8.798;2024-03-22T09:04:50;45.85;;;31.88;;
31764;SDS011;18338;53.240;8.798;2024-03-22T09:07:16;52.97;;;32.22;;
31764;SDS011;18338;53.240;8.798;2024-03-22T09:09:42;50.60;;;31.80;;
31764;SDS011;18338;53.240;8.798;2024-03-22T09:12:08;45.45;;;30.77;;
31764;SDS011;18338;53.240;8.798;2024-03-22T09:14:34;46.05;;;29.58;;
31764;SDS011;18338;53.240;8.798;2024-03-22T09:17:00;43.25;;;28.73;;
31764;SDS011;18338;53.240;8.798;2024-03-22T09:19:25;41.50;;;25.95;;
31764;SDS011;18338;53.240;8.798;2024-03-22T09:21:51;40.42;;;26.13;;
31764;SDS011;18338;53.240;8.798;2024-03-22T09:24:17;36.65;;;24.60;;
31764;SDS011;18338;53.240;8.798;2024-03-22T09:26:43;39.08;;;25.70;;
31764;SDS011;18338;53.240;8.798;2024-03-22T09:29:08;39.05;;;26.23;;
31764;SDS011;18338;53.240;8.798;2024-03-22T09:31:34;36.63;;;25.30;;
31764;SDS011;18338;53.240;8.798;2024-03-22T09:34:00;40.22;;;25.52;;
31764;SDS011;18338;53.240;8.798;2024-03-22T09:36:26;37.10;;;24.35;;
31764;SDS011;18338;53.240;8.798;2024-03-22T09:38:52;36.72;;;24.67;;
31764;SDS011;18338;53.240;8.798;2024-03-22T09:41:20;37.28;;;25.65;;
31764;SDS011;18338;53.240;8.798;2024-03-22T09:43:51;39.15;;;27.25;;
31764;SDS011;18338;53.240;8.798;2024-03-22T09:46:18;36.78;;;26.35;;
31764;SDS011;18338;53.240;8.798;2024-03-22T09:48:47;36.08;;;24.98;;
31764;SDS011;18338;53.240;8.798;2024-03-22T09:51:17;34.05;;;23.98;;
31764;SDS011;18338;53.240;8.798;2024-03-22T09:53:49;35.30;;;25.02;;
31764;SDS011;18338;53.240;8.798;2024-03-22T09:56:18;36.03;;;26.02;;
31764;SDS011;18338;53.240;8.798;2024-03-22T09:58:46;33.47;;;23.83;;
31764;SDS011;18338;53.240;8.798;2024-03-22T10:01:12;37.55;;;26.83;;
31764;SDS011;18338;53.240;8.798;2024-03-22T10:03:38;33.22;;;24.02;;
31764;SDS011;18338;53.240;8.798;2024-03-22T10:06:05;48.25;;;34.92;;
31764;SDS011;18338;53.240;8.798;2024-03-22T10:08:31;39.65;;;28.70;;
31764;SDS011;18338;53.240;8.798;2024-03-22T10:10:57;33.95;;;24.38;;
31764;SDS011;18338;53.240;8.798;2024-03-22T10:13:27;33.15;;;25.83;;
31764;SDS011;18338;53.240;8.798;2024-03-22T10:15:52;30.95;;;23.17;;
31764;SDS011;18338;53.240;8.798;2024-03-22T10:18:18;30.98;;;22.42;;
31764;SDS011;18338;53.240;8.798;2024-03-22T10:20:44;28.98;;;22.73;;
31764;SDS011;18338;53.240;8.798;2024-03-22T10:23:10;30.05;;;21.27;;
31764;SDS011;18338;53.240;8.798;2024-03-22T10:25:36;25.92;;;19.83;;
31764;SDS011;18338;53.240;8.798;2024-03-22T10:28:02;24.52;;;18.55;;
31764;SDS011;18338;53.240;8.798;2024-03-22T10:30:28;21.88;;;15.50;;
31764;SDS011;18338;53.240;8.798;2024-03-22T10:32:56;23.88;;;17.42;;
31764;SDS011;18338;53.240;8.798;2024-03-22T10:35:21;25.13;;;17.67;;
31764;SDS011;18338;53.240;8.798;2024-03-22T10:37:50;23.20;;;17.83;;
31764;SDS011;18338;53.240;8.798;2024-03-22T10:40:16;23.17;;;16.20;;
31764;SDS011;18338;53.240;8.798;2024-03-22T10:42:42;19.98;;;15.15;;
31764;SDS011;18338;53.240;8.798;2024-03-22T10:45:10;18.90;;;14.68;;
31764;SDS011;18338;53.240;8.798;2024-03-22T10:47:37;18.65;;;14.23;;
31764;SDS011;18338;53.240;8.798;2024-03-22T10:50:04;17.00;;;13.38;;
31764;SDS011;18338;53.240;8.798;2024-03-22T10:52:39;20.45;;;14.20;;
31764;SDS011;18338;53.240;8.798;2024-03-22T10:55:06;18.00;;;13.27;;
31764;SDS011;18338;53.240;8.798;2024-03-22T10:57:36;17.23;;;13.52;;
31764;SDS011;18338;53.240;8.798;2024-03-22T11:00:04;18.40;;;14.13;;
31764;SDS011;18338;53.240;8.798;2024-03-22T11:02:37;19.45;;;14.55;;
31764;SDS011;18338;53.240;8.798;2024-03-22T11:05:08;18.05;;;14.40;;
31764;SDS011;18338;53.240;8.798;2024-03-22T11:07:43;17.77;;;13.80;;
31764;SDS011;18338;53.240;8.798;2024-03-22T11:10:09;18.50;;;13.65;;
31764;SDS011;18338;53.240;8.798;2024-03-22T11:12:40;20.15;;;13.25;;
31764;SDS011;18338;53.240;8.798;2024-03-22T11:15:07;19.05;;;14.20;;
31764;SDS011;18338;53.240;8.798;2024-03-22T11:17:35;18.55;;;14.35;;
31764;SDS011;18338;53.240;8.798;2024-03-22T11:20:02;17.25;;;13.45;;
31764;SDS011;18338;53.240;8.798;2024-03-22T11:22:28;17.55;;;12.85;;
31764;SDS011;18338;53.240;8.798;2024-03-22T11:24:54;18.63;;;12.52;;
31764;SDS011;18338;53.240;8.798;2024-03-22T11:27:20;15.25;;;12.50;;
31764;SDS011;18338;53.240;8.798;2024-03-22T11:29:45;16.00;;;11.73;;
31764;SDS011;18338;53.240;8.798;2024-03-22T11:32:12;16.75;;;13.73;;
31764;SDS011;18338;53.240;8.798;2024-03-22T11:34:38;16.52;;;14.20;;
31764;SDS011;18338;53.240;8.798;2024-03-22T11:37:06;16.55;;;12.27;;
31764;SDS011;18338;53.240;8.798;2024-03-22T11:39:36;14.07;;;12.10;;
31764;SDS011;18338;53.240;8.798;2024-03-22T11:42:03;14.48;;;12.65;;
31764;SDS011;18338;53.240;8.798;2024-03-22T11:44:31;16.05;;;12.90;;
31764;SDS011;18338;53.240;8.798;2024-03-22T11:46:58;13.63;;;11.55;;
31764;SDS011;18338;53.240;8.798;2024-03-22T11:49:25;14.70;;;11.45;;
31764;SDS011;18338;53.240;8.798;2024-03-22T11:51:51;12.85;;;10.98;;
31764;SDS011;18338;53.240;8.798;2024-03-22T11:54:20;13.02;;;10.98;;
31764;SDS011;18338;53.240;8.798;2024-03-22T11:56:46;12.95;;;10.88;;
31764;SDS011;18338;53.240;8.798;2024-03-22T11:59:12;14.35;;;11.57;;
31764;SDS011;18338;53.240;8.798;2024-03-22T12:01:38;12.43;;;11.07;;
31764;SDS011;18338;53.240;8.798;2024-03-22T12:04:05;12.95;;;9.70;;
31764;SDS011;18338;53.240;8.798;2024-03-22T12:06:36;10.43;;;9.30;;
31764;SDS011;18338;53.240;8.798;2024-03-22T12:09:02;10.65;;;8.45;;
31764;SDS011;18338;53.240;8.798;2024-03-22T12:11:28;10.82;;;9.05;;
31764;SDS011;18338;53.240;8.798;2024-03-22T12:13:54;8.80;;;7.35;;
31764;SDS011;18338;53.240;8.798;2024-03-22T12:16:20;9.60;;;8.52;;
31764;SDS011;18338;53.240;8.798;2024-03-22T12:18:46;9.43;;;8.43;;
31764;SDS011;18338;53.240;8.798;2024-03-22T12:21:11;7.93;;;7.15;;
31764;SDS011;18338;53.240;8.798;2024-03-22T12:23:37;10.23;;;7.95;;
31764;SDS011;18338;53.240;8.798;2024-03-22T12:26:03;11.00;;;7.78;;
31764;SDS011;18338;53.240;8.798;2024-03-22T12:28:29;9.13;;;8.23;;
31764;SDS011;18338;53.240;8.798;2024-03-22T12:30:55;9.52;;;7.70;;
31764;SDS011;18338;53.240;8.798;2024-03-22T12:33:21;7.63;;;6.93;;
31764;SDS011;18338;53.240;8.798;2024-03-22T12:35:46;7.88;;;7.07;;
31764;SDS011;18338;53.240;8.798;2024-03-22T12:38:13;7.65;;;6.85;;
31764;SDS011;18338;53.240;8.798;2024-03-22T12:40:39;7.68;;;6.60;;
31764;SDS011;18338;53.240;8.798;2024-03-22T12:43:05;7.35;;;6.65;;
31764;SDS011;18338;53.240;8.798;2024-03-22T12:45:34;7.13;;;6.18;;
31764;SDS011;18338;53.240;8.798;2024-03-22T12:47:59;7.63;;;6.80;;
31764;SDS011;18338;53.240;8.798;2024-03-22T12:50:26;5.70;;;4.95;;
31764;SDS011;18338;53.240;8.798;2024-03-22T12:52:52;6.00;;;5.50;;
31764;SDS011;18338;53.240;8.798;2024-03-22T12:55:17;6.95;;;5.72;;
31764;SDS011;18338;53.240;8.798;2024-03-22T12:57:43;6.40;;;5.70;;
31764;SDS011;18338;53.240;8.798;2024-03-22T13:00:09;6.20;;;5.60;;
31764;SDS011;18338;53.240;8.798;2024-03-22T13:02:39;7.15;;;6.18;;
31764;SDS011;18338;53.240;8.798;2024-03-22T13:05:05;6.35;;;5.75;;
31764;SDS011;18338;53.240;8.798;2024-03-22T13:07:31;5.68;;;5.07;;
31764;SDS011;18338;53.240;8.798;2024-03-22T13:09:57;4.82;;;4.43;;
31764;SDS011;18338;53.240;8.798;2024-03-22T13:12:26;3.35;;;3.05;;
31764;SDS011;18338;53.240;8.798;2024-03-22T13:14:52;3.25;;;2.95;;
31764;SDS011;18338;53.240;8.798;2024-03-22T13:17:18;3.33;;;2.25;;
31764;SDS011;18338;53.240;8.798;2024-03-22T13:19:44;3.08;;;2.78;;
31764;SDS011;18338;53.240;8.798;2024-03-22T13:22:09;2.42;;;2.13;;
31764;SDS011;18338;53.240;8.798;2024-03-22T13:24:35;2.60;;;2.40;;
31764;SDS011;18338;53.240;8.798;2024-03-22T13:27:01;3.30;;;3.00;;
31764;SDS011;18338;53.240;8.798;2024-03-22T13:29:28;2.78;;;2.58;;
31764;SDS011;18338;53.240;8.798;2024-03-22T13:31:54;2.38;;;2.17;;
31764;SDS011;18338;53.240;8.798;2024-03-22T13:34:20;3.05;;;2.30;;
31764;SDS011;18338;53.240;8.798;2024-03-22T13:36:45;2.85;;;2.55;;
31764;SDS011;18338;53.240;8.798;2024-03-22T13:39:12;2.00;;;1.90;;
31764;SDS011;18338;53.240;8.798;2024-03-22T13:41:41;2.20;;;2.00;;
31764;SDS011;18338;53.240;8.798;2024-03-22T13:44:07;2.45;;;2.08;;
31764;SDS011;18338;53.240;8.798;2024-03-22T13:46:33;2.75;;;2.05;;
31764;SDS011;18338;53.240;8.798;2024-03-22T13:49:03;2.35;;;2.15;;
31764;SDS011;18338;53.240;8.798;2024-03-22T13:51:29;1.60;;;1.40;;
31764;SDS011;18338;53.240;8.798;2024-03-22T13:53:57;3.22;;;1.80;;
31764;SDS011;18338;53.240;8.798;2024-03-22T13:56:22;2.50;;;2.30;;
31764;SDS011;18338;53.240;8.798;2024-03-22T13:58:48;2.72;;;2.03;;
31764;SDS011;18338;53.240;8.798;2024-03-22T14:01:14;2.65;;;2.45;;
31764;SDS011;18338;53.240;8.798;2024-03-22T14:03:40;3.17;;;2.10;;
31764;SDS011;18338;53.240;8.798;2024-03-22T14:06:06;3.55;;;2.50;;
31764;SDS011;18338;53.240;8.798;2024-03-22T14:08:32;2.20;;;2.00;;
31764;SDS011;18338;53.240;8.798;2024-03-22T14:11:02;2.50;;;2.10;;
31764;SDS011;18338;53.240;8.798;2024-03-22T14:13:28;2.20;;;2.00;;
31764;SDS011;18338;53.240;8.798;2024-03-22T14:15:54;2.30;;;2.10;;
31764;SDS011;18338;53.240;8.798;2024-03-22T14:18:19;2.40;;;2.20;;
31764;SDS011;18338;53.240;8.798;2024-03-22T14:20:45;1.67;;;1.58;;